Niederstetten Airport ETHN

Flugplatz Daten

Name: Niederstetten Airport

Ident: ETHN

Lat: 49,39194489

Long: 9,958889008

Platzhöhe: 1339 ft

IataCode:

City: Niederstetten

Metar

2022/08/15 19:20
ETHN 151920Z VRB03KT 9999 FEW055 SCT120 19/11 Q1009 BLU+

Taf

2022/07/28 08:59
TAF ETHN 280750Z 2808/2821 09008KT 9999 NSW FEW060 SCT200
Gewünschte Webcam nicht vorhanden? Dann fügen Sie eine hinzu. Sie wird dann so schnell wie möglich freigeschaltet
Url: Title: